Time;durP1;ratioP1;P1;durP2;ratioP2;P2;SDS_P1;SDS_P2;PMS_P1;PMS_P2;Temp;Humidity;BMP_temperature;BMP_pressure;BME280_temperature;BME280_humidity;BME280_pressure;Samples;Min_cycle;Max_cycle;Signal;HPM_P1;HPM_P2
2022/05/03 00:02:20;;;;;;;5.22;4.75;;;20.50;48.90;;;;;;5053931;28;20191;-73
2022/05/03 00:04:56;;;;;;;5.10;4.70;;;20.50;48.90;;;;;;5053605;28;20259;-73
2022/05/03 00:07:27;;;;;;;5.30;4.90;;;20.50;48.90;;;;;;5055050;28;20297;-73
2022/05/03 00:10:01;;;;;;;5.07;4.68;;;20.50;48.90;;;;;;5055279;28;20196;-73
2022/05/03 00:12:32;;;;;;;4.75;4.35;;;20.50;48.90;;;;;;5054606;28;20195;-72
2022/05/03 00:15:00;;;;;;;4.93;4.47;;;20.50;48.90;;;;;;5054456;28;20632;-73
2022/05/03 00:17:29;;;;;;;4.63;4.22;;;20.40;48.90;;;;;;5056282;28;20208;-73
2022/05/03 00:19:56;;;;;;;5.05;4.65;;;20.40;48.90;;;;;;5054154;28;20202;-73
2022/05/03 00:22:23;;;;;;;4.95;4.40;;;20.40;48.90;;;;;;5055902;28;20191;-75
2022/05/03 00:24:54;;;;;;;4.80;4.30;;;20.40;48.80;;;;;;5055682;28;20187;-73
2022/05/03 00:27:23;;;;;;;4.85;4.35;;;20.40;48.80;;;;;;5053553;28;20223;-73
2022/05/03 00:29:50;;;;;;;5.40;5.00;;;20.40;48.80;;;;;;5053317;28;20265;-73
2022/05/03 00:32:17;;;;;;;5.15;4.65;;;20.40;48.80;;;;;;5053307;28;20735;-73
2022/05/03 00:34:46;;;;;;;4.93;4.55;;;20.40;48.80;;;;;;5053439;28;20648;-73
2022/05/03 00:37:12;;;;;;;5.00;4.60;;;20.40;48.80;;;;;;5053417;28;20222;-73
2022/05/03 00:39:39;;;;;;;4.70;4.30;;;20.40;48.80;;;;;;5052832;28;20204;-73
2022/05/03 00:42:09;;;;;;;5.15;4.65;;;20.40;48.90;;;;;;5052694;28;20665;-73
2022/05/03 00:44:58;;;;;;;5.18;4.68;;;20.40;48.90;;;;;;5054421;28;20187;-73
2022/05/03 00:47:45;;;;;;;5.05;4.55;;;20.40;48.80;;;;;;5053127;28;20223;-73
2022/05/03 00:50:19;;;;;;;4.95;4.45;;;20.40;48.90;;;;;;5052673;28;20216;-72
2022/05/03 00:52:48;;;;;;;5.03;4.63;;;20.30;48.70;;;;;;5054041;28;20208;-72
2022/05/03 00:55:37;;;;;;;4.60;4.20;;;20.30;48.80;;;;;;5052524;28;20311;-73
2022/05/03 00:58:10;;;;;;;5.05;4.60;;;20.30;48.70;;;;;;5049706;28;20306;-73
2022/05/03 01:00:40;;;;;;;4.90;4.50;;;20.30;48.70;;;;;;5052848;28;20198;-73
2022/05/03 01:03:11;;;;;;;4.80;4.40;;;20.30;48.60;;;;;;5053773;28;20216;-73
2022/05/03 01:05:45;;;;;;;4.93;4.53;;;20.30;48.60;;;;;;5052581;28;20191;-73
2022/05/03 01:08:15;;;;;;;5.35;4.50;;;20.30;48.50;;;;;;5052187;28;20218;-73
2022/05/03 01:10:54;;;;;;;5.00;4.60;;;20.30;48.60;;;;;;5052232;28;20671;-73
2022/05/03 01:13:25;;;;;;;4.90;4.50;;;20.30;48.60;;;;;;5052610;28;20195;-73
2022/05/03 01:15:53;;;;;;;5.72;5.22;;;20.30;48.50;;;;;;5052243;28;20219;-72
2022/05/03 01:18:23;;;;;;;4.90;4.50;;;20.30;48.40;;;;;;5052278;28;20306;-73
2022/05/03 01:20:59;;;;;;;5.15;4.75;;;20.30;48.60;;;;;;5052070;28;20187;-73
2022/05/03 01:23:49;;;;;;;5.53;4.93;;;20.30;48.70;;;;;;5052190;28;20195;-73
2022/05/03 01:26:58;;;;;;;5.20;4.60;;;20.30;48.60;;;;;;5051184;28;20253;-73
2022/05/03 01:29:31;;;;;;;5.40;4.90;;;20.20;48.60;;;;;;5052858;28;20215;-73
2022/05/03 01:31:59;;;;;;;5.18;4.68;;;20.20;48.70;;;;;;5051917;28;20202;-73
2022/05/03 01:34:27;;;;;;;4.72;4.35;;;20.20;48.70;;;;;;5053551;28;20561;-73
2022/05/03 01:37:15;;;;;;;5.18;4.78;;;20.10;48.60;;;;;;5053259;28;20207;-73
2022/05/03 01:39:48;;;;;;;5.18;4.68;;;20.10;48.80;;;;;;5053345;28;20186;-73
2022/05/03 01:42:20;;;;;;;5.00;4.60;;;20.10;48.70;;;;;;5053101;28;20180;-73
2022/05/03 01:44:51;;;;;;;5.00;4.60;;;20.10;48.70;;;;;;5053279;28;20275;-73
2022/05/03 01:47:19;;;;;;;4.95;4.50;;;20.10;48.70;;;;;;5051805;28;20230;-73
2022/05/03 01:53:04;;;;;;;5.22;4.82;;;20.10;48.80;;;;;;5054522;28;20203;-73
2022/05/03 01:56:10;;;;;;;5.55;4.97;;;20.00;48.70;;;;;;5053610;28;20289;-73
2022/05/03 01:58:41;;;;;;;4.97;4.57;;;20.00;48.70;;;;;;5027728;28;20310;-73
2022/05/03 02:01:13;;;;;;;5.13;4.57;;;20.00;48.80;;;;;;5057219;28;20188;-73
2022/05/03 02:03:46;;;;;;;5.55;5.05;;;20.00;48.70;;;;;;5056010;28;20637;-73
2022/05/03 02:06:13;;;;;;;5.68;5.18;;;20.00;48.70;;;;;;5056150;28;20196;-73
2022/05/03 02:08:53;;;;;;;5.40;4.90;;;20.00;48.60;;;;;;5056464;28;20308;-72
2022/05/03 02:11:41;;;;;;;5.80;5.30;;;20.00;48.70;;;;;;5057570;28;20218;-72
2022/05/03 02:17:01;;;;;;;4.97;4.57;;;19.90;48.70;;;;;;5038967;28;20699;-72
2022/05/03 02:19:41;;;;;;;5.20;4.80;;;19.90;48.60;;;;;;5056293;28;20660;-73
2022/05/03 02:22:19;;;;;;;5.75;5.25;;;19.90;48.70;;;;;;5056743;28;20187;-73
2022/05/03 02:25:02;;;;;;;5.38;4.97;;;19.90;48.60;;;;;;5056824;28;20186;-73
2022/05/03 02:27:29;;;;;;;5.53;5.03;;;19.90;48.70;;;;;;5055373;28;20592;-73
2022/05/03 02:29:56;;;;;;;5.38;4.95;;;19.80;48.60;;;;;;5055412;28;20211;-73
2022/05/03 02:32:28;;;;;;;5.10;4.70;;;19.80;48.60;;;;;;5055166;28;20202;-72
2022/05/03 02:34:58;;;;;;;5.43;4.93;;;19.80;48.60;;;;;;5055246;28;20258;-73
2022/05/03 02:37:25;;;;;;;5.05;4.65;;;19.80;48.60;;;;;;5056170;28;20528;-73
2022/05/03 02:39:58;;;;;;;5.53;5.03;;;19.80;48.70;;;;;;5054966;28;20196;-73
2022/05/03 02:42:25;;;;;;;5.35;4.82;;;19.70;48.50;;;;;;5056293;28;20622;-73
2022/05/03 02:44:53;;;;;;;5.10;4.70;;;19.80;48.70;;;;;;5054972;28;20207;-73
2022/05/03 02:47:29;;;;;;;5.82;5.32;;;19.70;48.50;;;;;;5152409;22;20921;-72
2022/05/03 02:50:04;;;;;;;5.47;5.00;;;19.80;48.50;;;;;;5054735;28;20667;-72
2022/05/03 02:52:41;;;;;;;5.60;5.10;;;19.70;48.50;;;;;;5055069;28;20624;-73
2022/05/03 02:55:14;;;;;;;5.10;4.70;;;19.70;48.50;;;;;;5054790;28;20202;-73
2022/05/03 02:57:47;;;;;;;5.13;4.72;;;19.70;48.50;;;;;;5054851;28;20227;-72
2022/05/03 03:03:27;;;;;;;5.63;5.13;;;19.70;48.60;;;;;;5053802;28;20194;-72
2022/05/03 03:05:57;;;;;;;6.10;5.50;;;19.70;48.30;;;;;;5052646;28;20294;-73
2022/05/03 03:08:24;;;;;;;5.80;5.40;;;19.70;48.50;;;;;;5054465;28;20219;-71
2022/05/03 03:10:52;;;;;;;5.50;5.00;;;19.60;48.30;;;;;;5054360;28;20212;-73
2022/05/03 03:13:25;;;;;;;5.20;4.80;;;19.60;48.40;;;;;;5054546;28;20203;-73
2022/05/03 03:15:54;;;;;;;5.18;4.78;;;19.70;48.40;;;;;;5054792;28;20188;-73
2022/05/03 03:18:24;;;;;;;5.70;5.18;;;19.60;48.30;;;;;;5054145;28;20207;-72
2022/05/03 03:20:55;;;;;;;6.00;5.40;;;19.60;48.40;;;;;;5055908;28;20550;-73
2022/05/03 03:23:25;;;;;;;6.10;5.60;;;19.60;48.30;;;;;;5054368;28;20195;-72
2022/05/03 03:25:52;;;;;;;5.47;4.97;;;19.60;48.10;;;;;;5054411;28;20192;-73
2022/05/03 03:28:21;;;;;;;5.15;4.75;;;19.60;48.10;;;;;;5054177;28;20705;-72
2022/05/03 03:30:49;;;;;;;6.47;5.82;;;19.60;48.20;;;;;;5053998;28;20216;-71
2022/05/03 03:33:17;;;;;;;5.82;5.32;;;19.60;48.10;;;;;;5054113;28;20313;-72
2022/05/03 03:35:46;;;;;;;6.57;5.97;;;19.60;48.10;;;;;;5054239;28;20237;-71
2022/05/03 03:38:14;;;;;;;6.00;5.50;;;19.60;48.10;;;;;;5054196;28;20219;-71
2022/05/03 03:40:41;;;;;;;5.75;5.25;;;19.60;48.10;;;;;;5053961;28;20214;-71
2022/05/03 03:43:09;;;;;;;5.28;4.88;;;19.70;48.10;;;;;;5054886;28;20195;-71
2022/05/03 03:45:36;;;;;;;5.95;5.43;;;19.70;48.10;;;;;;5055203;28;20610;-73
2022/05/03 03:48:04;;;;;;;6.47;6.00;;;19.70;48.00;;;;;;5053514;28;20254;-72
2022/05/03 03:50:31;;;;;;;6.05;5.55;;;19.70;47.90;;;;;;5053588;28;20302;-73
2022/05/03 03:53:00;;;;;;;6.30;5.70;;;19.70;47.90;;;;;;5053543;28;20195;-71
2022/05/03 03:55:27;;;;;;;5.85;5.35;;;19.60;47.80;;;;;;5055376;28;20183;-73
2022/05/03 03:57:56;;;;;;;6.10;5.60;;;19.60;47.90;;;;;;5053507;28;20223;-73
2022/05/03 04:00:23;;;;;;;5.72;5.22;;;19.60;47.90;;;;;;5053693;28;20191;-73
2022/05/03 04:02:50;;;;;;;6.15;5.65;;;19.70;48.00;;;;;;5053910;28;20231;-73
2022/05/03 04:05:19;;;;;;;5.80;5.38;;;19.60;47.80;;;;;;5053851;28;20272;-72
2022/05/03 04:07:46;;;;;;;6.30;5.80;;;19.70;47.90;;;;;;5053490;28;20215;-72
2022/05/03 04:10:15;;;;;;;6.10;5.60;;;19.70;47.80;;;;;;5053426;28;20719;-72
2022/05/03 04:12:42;;;;;;;6.10;5.57;;;19.70;47.90;;;;;;5053810;28;20202;-73
2022/05/03 04:15:10;;;;;;;5.90;5.40;;;19.70;47.70;;;;;;5053205;28;20204;-73
2022/05/03 04:17:37;;;;;;;6.07;5.57;;;19.60;47.70;;;;;;5053252;28;20273;-73
2022/05/03 04:20:05;;;;;;;6.20;5.68;;;19.70;47.70;;;;;;5053141;28;20199;-72
2022/05/03 04:22:33;;;;;;;5.88;5.30;;;19.60;48.20;;;;;;5053205;28;20207;-71
2022/05/03 04:25:01;;;;;;;6.28;5.68;;;19.60;47.70;;;;;;5053090;28;20566;-73
2022/05/03 04:27:29;;;;;;;5.22;4.82;;;19.70;47.80;;;;;;5053619;28;20219;-73
2022/05/03 04:29:56;;;;;;;5.85;5.40;;;19.70;47.70;;;;;;5052999;28;20229;-71
2022/05/03 04:32:23;;;;;;;6.18;5.57;;;19.70;47.50;;;;;;5053770;28;20192;-73
2022/05/03 04:34:50;;;;;;;5.90;5.40;;;19.60;47.50;;;;;;5053108;28;20195;-73
2022/05/03 04:37:17;;;;;;;5.75;5.30;;;19.70;47.70;;;;;;5052777;28;20223;-72
2022/05/03 04:39:44;;;;;;;7.53;6.18;;;19.60;47.70;;;;;;5052943;28;20203;-73
2022/05/03 04:44:55;;;;;;;5.90;5.30;;;19.60;48.10;;;;;;5173818;22;20227;-72
2022/05/03 04:47:23;;;;;;;6.22;5.38;;;19.60;48.70;;;;;;5052872;28;20285;-72
2022/05/03 04:49:49;;;;;;;6.00;5.50;;;19.60;47.90;;;;;;5053763;28;20648;-72
2022/05/03 04:52:16;;;;;;;6.28;5.65;;;19.70;48.10;;;;;;5054270;28;20199;-71
2022/05/03 04:54:43;;;;;;;6.05;5.43;;;19.60;48.20;;;;;;5052932;28;20201;-71
2022/05/03 04:57:10;;;;;;;5.88;5.38;;;19.70;48.40;;;;;;5052998;28;20225;-71
2022/05/03 04:59:37;;;;;;;6.32;5.68;;;19.70;48.50;;;;;;5052706;28;20203;-71
2022/05/03 05:02:06;;;;;;;7.10;5.90;;;19.70;48.30;;;;;;5052899;28;20205;-71
2022/05/03 05:04:33;;;;;;;6.32;5.82;;;19.80;48.30;;;;;;5052428;28;20195;-72
2022/05/03 05:07:00;;;;;;;6.05;5.55;;;19.90;48.40;;;;;;5052701;28;20223;-71
2022/05/03 05:09:27;;;;;;;5.25;4.88;;;19.90;48.90;;;;;;5053957;28;20198;-72
2022/05/03 05:11:54;;;;;;;5.85;5.07;;;20.10;49.00;;;;;;5053784;28;20203;-72
2022/05/03 05:14:21;;;;;;;5.32;4.93;;;20.30;48.80;;;;;;5052827;28;20209;-72
2022/05/03 05:16:49;;;;;;;4.90;4.60;;;20.40;48.80;;;;;;5052673;28;20199;-71
2022/05/03 05:19:17;;;;;;;5.15;4.75;;;20.60;48.40;;;;;;5086307;22;20772;-72
2022/05/03 05:21:44;;;;;;;4.82;4.40;;;20.70;47.70;;;;;;5052589;28;20672;-72
2022/05/03 05:24:11;;;;;;;5.88;5.38;;;20.90;46.90;;;;;;5052863;28;20199;-72
2022/05/03 05:26:39;;;;;;;5.38;4.97;;;21.10;46.60;;;;;;5052385;28;20195;-71
2022/05/03 05:29:06;;;;;;;5.60;5.10;;;21.20;46.30;;;;;;5054461;28;20244;-72
2022/05/03 05:31:34;;;;;;;5.32;4.93;;;21.30;46.00;;;;;;5053356;28;20219;-72
2022/05/03 05:34:02;;;;;;;5.65;5.25;;;21.40;45.70;;;;;;5052492;28;20202;-72
2022/05/03 05:36:30;;;;;;;5.78;5.38;;;21.50;45.50;;;;;;5054009;28;20237;-72
2022/05/03 05:38:57;;;;;;;5.18;4.78;;;21.70;45.30;;;;;;5052612;28;20613;-72
2022/05/03 05:41:24;;;;;;;5.50;5.00;;;21.80;45.00;;;;;;5053326;28;20186;-72
2022/05/03 05:43:51;;;;;;;6.00;5.53;;;21.90;44.90;;;;;;5052558;28;20199;-71
2022/05/03 05:46:18;;;;;;;5.68;5.28;;;22.00;44.70;;;;;;5053549;28;20195;-72
2022/05/03 05:48:45;;;;;;;5.53;5.13;;;22.10;44.50;;;;;;5051781;28;20310;-71
2022/05/03 05:51:13;;;;;;;5.43;5.03;;;22.20;44.30;;;;;;5432292;22;20208;-72
2022/05/03 05:53:40;;;;;;;5.85;5.45;;;22.30;44.00;;;;;;5052154;28;20747;-72
2022/05/03 05:56:09;;;;;;;5.68;5.28;;;22.40;43.90;;;;;;5051898;28;20305;-73
2022/05/03 05:58:37;;;;;;;5.90;5.20;;;22.50;43.60;;;;;;5051714;28;20553;-72
2022/05/03 06:01:04;;;;;;;7.13;6.03;;;22.60;43.40;;;;;;5053590;28;20190;-72
2022/05/03 06:03:32;;;;;;;6.72;6.13;;;22.70;43.40;;;;;;5053268;28;20187;-73
2022/05/03 06:05:59;;;;;;;6.35;5.85;;;22.80;43.20;;;;;;5051787;28;20255;-72
2022/05/03 06:08:26;;;;;;;6.30;5.80;;;22.80;43.00;;;;;;5052821;28;20273;-73
2022/05/03 06:10:58;;;;;;;5.60;5.20;;;22.90;42.80;;;;;;5052722;28;20218;-73
2022/05/03 06:13:25;;;;;;;5.72;5.30;;;23.00;42.70;;;;;;5051807;28;20285;-72
2022/05/03 06:15:53;;;;;;;6.05;5.60;;;23.10;42.50;;;;;;5051932;28;20199;-73
2022/05/03 06:18:20;;;;;;;5.25;4.85;;;23.20;42.40;;;;;;5051552;28;20258;-72
2022/05/03 06:20:47;;;;;;;5.28;4.88;;;23.20;42.20;;;;;;5051575;28;20195;-73
2022/05/03 06:23:15;;;;;;;5.90;5.40;;;23.30;42.00;;;;;;5051705;28;20203;-72
2022/05/03 06:25:42;;;;;;;5.82;5.32;;;23.40;42.00;;;;;;5051614;28;20195;-73
2022/05/03 06:28:11;;;;;;;5.90;5.10;;;23.50;41.80;;;;;;5051811;28;20226;-73
2022/05/03 06:30:40;;;;;;;5.50;5.10;;;23.60;41.60;;;;;;5051283;28;20664;-73
2022/05/03 06:33:07;;;;;;;5.25;4.72;;;23.60;41.40;;;;;;5051565;28;20202;-73
2022/05/03 06:35:34;;;;;;;5.47;5.00;;;23.70;41.20;;;;;;5052462;28;20200;-72
2022/05/03 06:38:01;;;;;;;5.25;4.70;;;23.80;41.10;;;;;;5051407;28;20223;-72
2022/05/03 06:40:28;;;;;;;5.53;5.20;;;23.90;40.90;;;;;;5056469;28;20716;-73
2022/05/03 06:42:55;;;;;;;5.60;5.20;;;24.00;40.80;;;;;;5055766;28;20550;-72
2022/05/03 06:45:24;;;;;;;5.35;4.95;;;24.00;40.60;;;;;;5056123;28;20187;-73
2022/05/03 06:47:51;;;;;;;4.90;4.45;;;24.10;40.50;;;;;;5056439;28;20217;-72
2022/05/03 06:50:18;;;;;;;4.63;4.30;;;24.20;40.30;;;;;;5054874;28;20551;-73
2022/05/03 06:52:45;;;;;;;5.35;4.85;;;24.30;40.10;;;;;;5055918;28;20704;-72
2022/05/03 06:55:12;;;;;;;4.82;4.45;;;24.30;40.10;;;;;;5056013;28;20210;-73
2022/05/03 06:57:39;;;;;;;4.40;4.10;;;24.40;39.90;;;;;;5054475;28;20222;-73
2022/05/03 07:00:08;;;;;;;4.47;4.18;;;24.50;39.80;;;;;;5054572;28;20207;-72
2022/05/03 07:02:36;;;;;;;4.15;3.85;;;24.50;39.60;;;;;;5054716;28;20192;-72
2022/05/03 07:05:06;;;;;;;4.43;4.13;;;24.60;39.50;;;;;;5056167;28;20175;-72
2022/05/03 07:07:34;;;;;;;4.50;4.10;;;24.70;39.40;;;;;;5055976;28;20227;-73
2022/05/03 07:10:01;;;;;;;4.43;4.03;;;24.70;39.30;;;;;;5054335;28;20200;-73
2022/05/03 07:12:28;;;;;;;4.15;3.85;;;24.80;39.10;;;;;;5055557;28;20238;-73
2022/05/03 07:14:59;;;;;;;4.32;3.92;;;24.80;39.70;;;;;;5054316;28;20196;-73
2022/05/03 07:22:58;;;;;;;4.50;4.20;;;25.00;38.80;;;;;;5054342;28;20218;-73
2022/05/03 07:25:25;;;;;;;4.25;3.95;;;25.10;38.60;;;;;;5054549;28;20257;-73
2022/05/03 07:27:52;;;;;;;4.07;3.72;;;25.10;38.60;;;;;;5056150;28;20203;-72
2022/05/03 07:30:20;;;;;;;4.20;3.90;;;25.10;38.40;;;;;;5054196;28;20203;-72
2022/05/03 07:32:46;;;;;;;4.10;3.80;;;25.20;38.40;;;;;;5055414;28;20215;-73
2022/05/03 07:35:15;;;;;;;3.97;3.70;;;25.20;38.30;;;;;;5054185;28;20218;-72
2022/05/03 07:37:42;;;;;;;4.07;3.78;;;25.30;38.20;;;;;;5054183;28;20211;-72
2022/05/03 07:40:11;;;;;;;4.10;3.80;;;25.40;38.10;;;;;;5055188;28;20191;-73
2022/05/03 07:42:37;;;;;;;4.03;3.80;;;25.40;37.90;;;;;;5053740;28;20192;-73
2022/05/03 07:45:07;;;;;;;4.78;4.18;;;25.40;37.80;;;;;;5053820;28;20195;-72
2022/05/03 07:47:34;;;;;;;4.03;3.72;;;25.50;37.80;;;;;;5054913;28;20235;-73
2022/05/03 07:50:01;;;;;;;4.00;3.70;;;25.60;37.70;;;;;;5054515;28;20300;-73
2022/05/03 07:52:30;;;;;;;4.18;3.85;;;25.60;37.50;;;;;;5053637;28;20229;-72
2022/05/03 07:54:57;;;;;;;3.80;3.58;;;25.70;37.40;;;;;;5053498;28;20694;-72
2022/05/03 07:57:24;;;;;;;3.85;3.50;;;25.70;38.00;;;;;;5053579;28;20216;-72
2022/05/03 07:59:54;;;;;;;4.13;3.83;;;25.70;37.40;;;;;;5053552;28;20294;-73
2022/05/03 08:02:23;;;;;;;4.30;3.95;;;25.70;37.50;;;;;;5054642;28;20254;-72
2022/05/03 08:04:50;;;;;;;4.45;4.07;;;25.70;37.50;;;;;;5053349;28;20261;-73
2022/05/03 08:07:17;;;;;;;4.18;3.88;;;25.70;37.40;;;;;;5053469;28;20299;-73
2022/05/03 08:09:46;;;;;;;3.90;3.60;;;25.70;37.30;;;;;;5053603;28;20202;-73
2022/05/03 08:12:13;;;;;;;4.00;3.70;;;25.80;37.40;;;;;;5053498;28;20645;-73
2022/05/03 08:14:41;;;;;;;3.78;3.55;;;25.80;37.20;;;;;;5053223;28;20203;-73
2022/05/03 08:17:08;;;;;;;3.97;3.67;;;25.80;37.10;;;;;;5054232;28;20218;-73
2022/05/03 08:19:36;;;;;;;3.90;3.60;;;25.70;37.60;;;;;;5053133;28;20203;-73
2022/05/03 08:22:03;;;;;;;3.97;3.60;;;25.70;37.30;;;;;;5053226;28;20233;-73
2022/05/03 08:24:30;;;;;;;3.53;3.33;;;25.60;37.50;;;;;;5054629;28;20199;-73
2022/05/03 08:26:59;;;;;;;3.83;3.60;;;25.50;37.80;;;;;;5053240;28;20223;-73
2022/05/03 08:29:29;;;;;;;4.15;3.85;;;25.30;37.90;;;;;;5053165;28;20218;-73
2022/05/03 08:31:57;;;;;;;3.78;3.58;;;25.20;38.20;;;;;;5053549;28;20219;-73
2022/05/03 08:34:24;;;;;;;3.42;3.22;;;25.10;38.60;;;;;;5052811;28;20221;-73
2022/05/03 08:42:17;;;;;;;4.05;3.80;;;24.80;39.20;;;;;;5052451;28;20191;-73
2022/05/03 08:44:45;;;;;;;3.45;3.25;;;24.70;39.20;;;;;;5052390;28;20195;-73
2022/05/03 08:47:12;;;;;;;3.90;3.60;;;24.70;39.20;;;;;;5053763;28;20207;-72
2022/05/03 08:49:42;;;;;;;4.30;4.00;;;24.70;39.30;;;;;;5052444;28;20195;-72
2022/05/03 08:52:09;;;;;;;3.85;3.55;;;24.70;39.40;;;;;;5052647;28;20219;-73
2022/05/03 08:54:37;;;;;;;3.50;3.30;;;24.70;39.40;;;;;;5053248;28;20656;-73
2022/05/03 08:57:06;;;;;;;3.58;3.38;;;24.70;39.40;;;;;;5052380;28;20223;-72
2022/05/03 08:59:35;;;;;;;4.07;3.78;;;24.60;39.40;;;;;;5052778;28;20219;-73
2022/05/03 09:02:03;;;;;;;3.33;3.13;;;24.60;39.30;;;;;;5053336;28;20253;-73
2022/05/03 09:04:30;;;;;;;3.72;3.53;;;24.60;39.30;;;;;;5052635;28;20245;-72
2022/05/03 09:06:57;;;;;;;3.50;3.30;;;24.70;39.40;;;;;;5053411;28;20242;-73
2022/05/03 09:09:24;;;;;;;3.47;3.28;;;24.60;39.30;;;;;;5052217;28;20196;-73
2022/05/03 09:11:53;;;;;;;3.50;3.22;;;24.60;39.40;;;;;;5053623;28;20300;-73
2022/05/03 09:14:39;;;;;;;3.60;3.40;;;24.60;39.40;;;;;;5052126;28;20219;-73
2022/05/03 09:17:06;;;;;;;4.03;3.63;;;24.60;39.40;;;;;;5052239;28;20246;-72
2022/05/03 09:19:33;;;;;;;3.30;3.10;;;24.70;39.30;;;;;;5052421;28;20196;-73
2022/05/03 09:24:58;;;;;;;4.13;3.83;;;24.70;39.20;;;;;;5052441;28;20638;-73
2022/05/03 09:27:26;;;;;;;3.55;3.25;;;24.70;39.70;;;;;;5052407;28;20225;-73
2022/05/03 09:30:02;;;;;;;3.53;3.33;;;24.80;39.00;;;;;;5052423;28;20199;-73
2022/05/03 09:32:40;;;;;;;3.60;3.30;;;24.90;39.00;;;;;;5053300;28;20217;-73
2022/05/03 09:35:08;;;;;;;3.50;3.30;;;24.90;38.90;;;;;;5053130;28;20179;-72
2022/05/03 09:37:41;;;;;;;3.67;3.45;;;24.90;38.80;;;;;;5052092;28;20218;-72
2022/05/03 09:40:09;;;;;;;3.58;3.38;;;25.00;38.80;;;;;;5053444;28;20195;-73
2022/05/03 09:42:37;;;;;;;3.33;3.13;;;25.00;38.80;;;;;;5052045;28;20213;-73
2022/05/03 09:45:08;;;;;;;3.20;3.00;;;25.00;38.80;;;;;;5052010;28;20274;-73
2022/05/03 09:47:48;;;;;;;3.28;3.08;;;24.90;38.80;;;;;;5051998;28;20215;-73
2022/05/03 09:50:26;;;;;;;3.70;3.40;;;24.90;38.80;;;;;;5053452;28;20184;-73
2022/05/03 09:52:53;;;;;;;3.67;3.38;;;24.90;38.90;;;;;;5052116;28;20219;-73
2022/05/03 09:55:28;;;;;;;3.90;3.50;;;24.90;38.90;;;;;;5052030;28;20205;-73
2022/05/03 09:57:56;;;;;;;3.20;3.00;;;24.90;38.90;;;;;;5051774;28;20219;-73
2022/05/03 10:00:24;;;;;;;3.53;3.22;;;24.90;38.90;;;;;;5051998;28;20202;-73
2022/05/03 10:02:51;;;;;;;3.55;3.35;;;24.90;38.90;;;;;;5052078;28;20294;-73
2022/05/03 10:05:20;;;;;;;3.35;3.15;;;24.90;39.50;;;;;;5056295;28;20199;-73
2022/05/03 10:07:47;;;;;;;3.60;3.30;;;24.90;38.80;;;;;;5068313;28;20282;-73
2022/05/03 10:10:15;;;;;;;3.88;3.58;;;24.90;38.80;;;;;;5052922;28;20664;-72
2022/05/03 10:12:43;;;;;;;3.40;3.20;;;24.90;38.80;;;;;;5054004;28;20242;-73
2022/05/03 10:15:11;;;;;;;3.35;3.15;;;25.00;38.90;;;;;;5057645;28;20192;-73
2022/05/03 10:20:38;;;;;;;3.50;3.30;;;25.00;38.80;;;;;;5055739;28;20548;-73
2022/05/03 10:23:05;;;;;;;3.63;3.42;;;25.00;38.80;;;;;;5055688;28;20260;-72
2022/05/03 10:25:50;;;;;;;3.60;3.40;;;25.00;38.70;;;;;;5055466;28;20583;-72
2022/05/03 10:28:17;;;;;;;3.42;3.20;;;25.00;38.70;;;;;;5055443;28;20256;-73
2022/05/03 10:31:08;;;;;;;3.58;3.35;;;25.00;38.60;;;;;;5055336;28;20252;-73
2022/05/03 10:33:43;;;;;;;3.67;3.42;;;25.10;38.60;;;;;;5055466;28;20211;-72
2022/05/03 10:36:41;;;;;;;3.47;3.17;;;25.00;38.50;;;;;;5055377;28;20312;-73
2022/05/03 10:39:22;;;;;;;3.50;3.30;;;25.00;38.60;;;;;;5022629;28;20226;-73
2022/05/03 10:41:57;;;;;;;3.20;3.00;;;25.10;38.70;;;;;;5056633;28;20271;-73
2022/05/03 10:44:47;;;;;;;3.30;3.10;;;25.00;39.30;;;;;;5054969;28;20252;-73
2022/05/03 10:47:15;;;;;;;3.30;3.10;;;25.00;38.70;;;;;;5054662;28;20641;-73
2022/05/03 10:50:21;;;;;;;3.35;3.15;;;25.00;38.70;;;;;;5056234;28;20199;-73
2022/05/03 10:53:16;;;;;;;3.40;3.20;;;25.00;38.80;;;;;;5054863;28;20219;-73
2022/05/03 10:56:19;;;;;;;3.20;3.00;;;25.00;38.80;;;;;;5056214;28;20184;-73
2022/05/03 10:59:06;;;;;;;3.45;3.15;;;24.90;38.80;;;;;;5054857;28;20214;-73
2022/05/03 11:01:34;;;;;;;3.55;3.35;;;24.90;38.80;;;;;;5054827;28;20204;-73
2022/05/03 11:04:09;;;;;;;3.40;3.20;;;24.90;38.80;;;;;;5054755;28;20249;-73
2022/05/03 11:06:47;;;;;;;3.60;3.30;;;24.90;39.00;;;;;;5054491;28;20289;-73
2022/05/03 11:09:16;;;;;;;3.10;2.90;;;24.90;39.10;;;;;;5056096;28;20537;-73
2022/05/03 11:12:07;;;;;;;3.28;3.05;;;24.80;39.10;;;;;;5055697;28;20195;-73
2022/05/03 11:15:03;;;;;;;3.13;2.90;;;24.90;39.20;;;;;;5055974;28;20222;-73
2022/05/03 11:17:31;;;;;;;3.17;2.97;;;24.80;39.20;;;;;;5055836;28;20761;-73
2022/05/03 11:20:01;;;;;;;3.30;3.10;;;24.80;39.20;;;;;;5055584;28;20222;-72
2022/05/03 11:22:35;;;;;;;3.30;3.10;;;24.80;39.20;;;;;;5054229;28;20646;-73
2022/05/03 11:25:08;;;;;;;3.10;2.90;;;24.80;39.30;;;;;;5053433;28;20225;-73
2022/05/03 11:27:35;;;;;;;3.20;3.00;;;24.80;39.30;;;;;;5054046;28;20595;-73
2022/05/03 11:30:04;;;;;;;3.10;2.90;;;24.80;39.30;;;;;;5054160;28;20589;-73
2022/05/03 11:32:37;;;;;;;3.20;3.00;;;24.80;39.30;;;;;;5053993;28;20208;-73
2022/05/03 11:35:06;;;;;;;3.25;3.00;;;24.90;39.30;;;;;;5055537;28;20259;-73
2022/05/03 11:37:35;;;;;;;3.53;2.92;;;24.90;39.30;;;;;;5053958;28;20211;-73
2022/05/03 11:40:04;;;;;;;3.13;2.92;;;24.90;39.30;;;;;;5055070;28;20195;-72
2022/05/03 11:42:40;;;;;;;3.30;3.10;;;24.90;39.30;;;;;;5053791;28;20289;-73
2022/05/03 11:45:07;;;;;;;2.97;2.78;;;24.90;39.20;;;;;;5053850;28;20226;-72
2022/05/03 11:47:36;;;;;;;2.92;2.72;;;24.90;39.20;;;;;;5053931;28;20592;-73
2022/05/03 11:50:04;;;;;;;2.90;2.70;;;24.90;39.10;;;;;;5055022;28;20184;-73
2022/05/03 11:58:02;;;;;;;3.10;2.90;;;25.00;39.10;;;;;;5055046;28;20207;-73
2022/05/03 12:00:29;;;;;;;3.03;2.83;;;25.00;39.10;;;;;;5053645;28;20218;-73
2022/05/03 12:03:00;;;;;;;3.03;2.83;;;25.00;39.20;;;;;;5054669;28;20194;-72
2022/05/03 12:05:27;;;;;;;3.00;2.80;;;25.00;39.20;;;;;;5054588;28;20183;-72
2022/05/03 12:07:55;;;;;;;3.20;3.00;;;24.90;39.20;;;;;;5053324;28;20293;-73
2022/05/03 12:10:25;;;;;;;3.30;3.10;;;24.90;39.20;;;;;;5054600;28;20184;-72
2022/05/03 12:13:12;;;;;;;2.70;2.60;;;24.90;39.20;;;;;;5054918;28;20294;-73
2022/05/03 12:15:40;;;;;;;3.00;2.80;;;24.90;39.30;;;;;;5053236;28;20198;-73
2022/05/03 12:18:13;;;;;;;3.10;2.90;;;24.80;39.30;;;;;;5069361;22;20723;-59
2022/05/03 12:20:46;;;;;;;2.97;2.78;;;24.80;39.40;;;;;;5053692;28;20650;-60
2022/05/03 12:23:16;;;;;;;2.92;2.80;;;24.80;39.40;;;;;;5053910;28;20183;-59
2022/05/03 12:26:21;;;;;;;3.20;3.00;;;24.70;39.40;;;;;;5056093;28;20378;-60
2022/05/03 12:28:50;;;;;;;3.00;2.80;;;24.70;39.60;;;;;;5055161;28;20286;-59
2022/05/03 12:31:18;;;;;;;3.20;3.00;;;24.70;39.80;;;;;;5054957;28;20202;-59
2022/05/03 12:33:48;;;;;;;3.10;2.90;;;24.60;39.80;;;;;;5054817;28;20207;-59
2022/05/03 12:36:29;;;;;;;2.92;2.72;;;24.50;39.80;;;;;;5053852;28;20187;-59
2022/05/03 12:38:56;;;;;;;2.95;2.75;;;24.50;40.00;;;;;;5054532;28;20297;-59
2022/05/03 12:41:26;;;;;;;2.90;2.70;;;24.50;40.10;;;;;;5053136;28;20195;-59
2022/05/03 12:44:03;;;;;;;3.00;2.80;;;24.40;40.10;;;;;;5053151;28;20195;-59
2022/05/03 12:53:26;;;;;;;3.05;2.85;;;24.30;40.10;;;;;;4363310;26;20264;-62
2022/05/03 12:59:04;;;;;;;2.92;2.72;;;24.20;40.30;;;;;;5049272;28;20284;-62
2022/05/03 13:01:32;;;;;;;2.95;2.75;;;24.10;40.30;;;;;;5211564;22;20231;-70
2022/05/03 13:03:59;;;;;;;3.40;3.20;;;24.10;40.50;;;;;;5052630;28;20195;-71
2022/05/03 13:06:26;;;;;;;2.95;2.75;;;24.10;40.50;;;;;;5052932;28;20199;-71
2022/05/03 13:08:53;;;;;;;2.92;2.72;;;24.00;40.50;;;;;;5052449;28;20195;-72
2022/05/03 13:11:21;;;;;;;3.10;2.90;;;24.00;40.60;;;;;;5052982;28;20262;-72
2022/05/03 13:13:48;;;;;;;3.08;2.88;;;24.00;40.70;;;;;;5201923;22;20227;-72
2022/05/03 13:16:16;;;;;;;2.83;2.63;;;23.90;40.70;;;;;;5052426;28;20206;-72
2022/05/03 13:18:45;;;;;;;3.15;2.95;;;23.90;40.70;;;;;;5053517;28;20191;-73
2022/05/03 13:23:59;;;;;;;3.30;3.10;;;23.90;40.90;;;;;;3360744;26;20300;-60
2022/05/03 13:26:26;;;;;;;3.10;2.90;;;23.80;41.60;;;;;;5053398;28;20229;-60
2022/05/03 13:28:53;;;;;;;2.65;2.55;;;23.80;41.00;;;;;;5053058;28;20231;-60
2022/05/03 13:31:22;;;;;;;3.00;2.80;;;23.80;41.10;;;;;;5053366;28;20279;-60
2022/05/03 13:33:49;;;;;;;3.10;2.90;;;23.70;41.20;;;;;;5051969;28;20247;-59
2022/05/03 13:41:46;;;;;;;2.97;2.80;;;23.60;41.40;;;;;;5051965;28;20219;-72
2022/05/03 13:44:12;;;;;;;2.92;2.72;;;23.60;41.40;;;;;;5052168;28;20230;-72
2022/05/03 13:46:41;;;;;;;3.17;2.97;;;23.60;41.60;;;;;;5051998;28;20199;-72
2022/05/03 13:49:08;;;;;;;3.22;3.00;;;23.60;41.80;;;;;;5055595;28;20219;-72
2022/05/03 13:51:36;;;;;;;3.10;2.90;;;23.50;42.00;;;;;;5056190;28;20230;-72
2022/05/03 13:54:02;;;;;;;3.08;2.88;;;23.40;42.70;;;;;;5057130;28;20684;-72
2022/05/03 13:56:29;;;;;;;2.95;2.75;;;23.40;42.60;;;;;;5056400;28;20203;-72
2022/05/03 13:58:57;;;;;;;2.90;2.70;;;23.30;42.00;;;;;;5055894;28;20613;-72